sensor_id;sensor_type;location;lat;lon;timestamp;temperature;humidity
75865;HTU21D;64510;46.704;38.274;2023-03-05T00:00:18;6.60;90.64
75865;HTU21D;64510;46.704;38.274;2023-03-05T00:02:44;6.60;90.65
75865;HTU21D;64510;46.704;38.274;2023-03-05T00:05:10;6.60;90.63
75865;HTU21D;64510;46.704;38.274;2023-03-05T00:07:36;6.58;90.66
75865;HTU21D;64510;46.704;38.274;2023-03-05T00:10:04;6.58;90.67
75865;HTU21D;64510;46.704;38.274;2023-03-05T00:12:30;6.56;90.69
75865;HTU21D;64510;46.704;38.274;2023-03-05T00:14:56;6.53;90.76
75865;HTU21D;64510;46.704;38.274;2023-03-05T00:17:22;6.52;90.82
75865;HTU21D;64510;46.704;38.274;2023-03-05T00:19:48;6.53;90.81
75865;HTU21D;64510;46.704;38.274;2023-03-05T00:22:13;6.54;90.80
75865;HTU21D;64510;46.704;38.274;2023-03-05T00:24:39;6.52;90.89
75865;HTU21D;64510;46.704;38.274;2023-03-05T00:27:05;6.55;90.78
75865;HTU21D;64510;46.704;38.274;2023-03-05T00:29:31;6.55;90.76
75865;HTU21D;64510;46.704;38.274;2023-03-05T00:31:57;6.55;90.70
75865;HTU21D;64510;46.704;38.274;2023-03-05T00:34:23;6.55;90.66
75865;HTU21D;64510;46.704;38.274;2023-03-05T00:36:51;6.53;90.69
75865;HTU21D;64510;46.704;38.274;2023-03-05T00:39:19;6.53;90.72
75865;HTU21D;64510;46.704;38.274;2023-03-05T00:41:45;6.53;90.74
75865;HTU21D;64510;46.704;38.274;2023-03-05T00:44:11;6.53;90.74
75865;HTU21D;64510;46.704;38.274;2023-03-05T00:46:37;6.55;90.76
75865;HTU21D;64510;46.704;38.274;2023-03-05T00:49:03;6.57;90.69
75865;HTU21D;64510;46.704;38.274;2023-03-05T00:51:29;6.57;90.71
75865;HTU21D;64510;46.704;38.274;2023-03-05T00:53:55;6.58;90.66
75865;HTU21D;64510;46.704;38.274;2023-03-05T00:56:22;6.56;90.57
75865;HTU21D;64510;46.704;38.274;2023-03-05T00:58:48;6.49;90.69
75865;HTU21D;64510;46.704;38.274;2023-03-05T01:01:14;6.40;90.79
75865;HTU21D;64510;46.704;38.274;2023-03-05T01:03:40;6.31;90.89
75865;HTU21D;64510;46.704;38.274;2023-03-05T01:06:09;6.19;91.02
75865;HTU21D;64510;46.704;38.274;2023-03-05T01:08:35;6.08;91.18
75865;HTU21D;64510;46.704;38.274;2023-03-05T01:11:02;6.02;91.29
75865;HTU21D;64510;46.704;38.274;2023-03-05T01:13:28;5.96;91.39
75865;HTU21D;64510;46.704;38.274;2023-03-05T01:15:54;5.90;91.43
75865;HTU21D;64510;46.704;38.274;2023-03-05T01:18:20;5.80;91.49
75865;HTU21D;64510;46.704;38.274;2023-03-05T01:20:46;5.70;91.61
75865;HTU21D;64510;46.704;38.274;2023-03-05T01:23:13;5.61;91.75
75865;HTU21D;64510;46.704;38.274;2023-03-05T01:25:39;5.56;91.83
75865;HTU21D;64510;46.704;38.274;2023-03-05T01:28:05;5.56;91.90
75865;HTU21D;64510;46.704;38.274;2023-03-05T01:30:32;5.56;91.80
75865;HTU21D;64510;46.704;38.274;2023-03-05T01:32:58;5.54;91.77
75865;HTU21D;64510;46.704;38.274;2023-03-05T01:35:25;5.51;91.78
75865;HTU21D;64510;46.704;38.274;2023-03-05T01:37:51;5.55;91.98
75865;HTU21D;64510;46.704;38.274;2023-03-05T01:40:26;5.65;91.84
75865;HTU21D;64510;46.704;38.274;2023-03-05T01:43:00;5.72;91.69
75865;HTU21D;64510;46.704;38.274;2023-03-05T01:45:31;5.78;91.53
75865;HTU21D;64510;46.704;38.274;2023-03-05T01:47:58;5.76;91.44
75865;HTU21D;64510;46.704;38.274;2023-03-05T01:50:25;5.71;91.47
75865;HTU21D;64510;46.704;38.274;2023-03-05T01:52:56;5.67;91.53
75865;HTU21D;64510;46.704;38.274;2023-03-05T01:55:22;5.70;91.64
75865;HTU21D;64510;46.704;38.274;2023-03-05T02:00:26;5.78;91.44
75865;HTU21D;64510;46.704;38.274;2023-03-05T02:02:54;5.84;91.31
75865;HTU21D;64510;46.704;38.274;2023-03-05T02:05:30;5.92;91.28
75865;HTU21D;64510;46.704;38.274;2023-03-05T02:08:01;5.99;91.23
75865;HTU21D;64510;46.704;38.274;2023-03-05T02:10:35;6.06;91.27
75865;HTU21D;64510;46.704;38.274;2023-03-05T02:13:06;6.11;91.06
75865;HTU21D;64510;46.704;38.274;2023-03-05T02:15:33;6.16;90.99
75865;HTU21D;64510;46.704;38.274;2023-03-05T02:17:59;6.21;90.95
75865;HTU21D;64510;46.704;38.274;2023-03-05T02:20:28;6.24;90.95
75865;HTU21D;64510;46.704;38.274;2023-03-05T02:22:55;6.28;90.92
75865;HTU21D;64510;46.704;38.274;2023-03-05T02:25:27;6.33;90.87
75865;HTU21D;64510;46.704;38.274;2023-03-05T02:31:10;6.36;90.87
75865;HTU21D;64510;46.704;38.274;2023-03-05T02:33:37;6.40;90.86
75865;HTU21D;64510;46.704;38.274;2023-03-05T02:36:04;6.42;90.83
75865;HTU21D;64510;46.704;38.274;2023-03-05T02:38:30;6.46;90.76
75865;HTU21D;64510;46.704;38.274;2023-03-05T02:40:55;6.50;90.78
75865;HTU21D;64510;46.704;38.274;2023-03-05T02:43:25;6.52;90.67
75865;HTU21D;64510;46.704;38.274;2023-03-05T02:45:51;6.54;90.71
75865;HTU21D;64510;46.704;38.274;2023-03-05T02:48:18;6.52;90.76
75865;HTU21D;64510;46.704;38.274;2023-03-05T02:50:45;6.53;90.73
75865;HTU21D;64510;46.704;38.274;2023-03-05T02:53:11;6.49;90.74
75865;HTU21D;64510;46.704;38.274;2023-03-05T02:55:38;6.45;90.82
75865;HTU21D;64510;46.704;38.274;2023-03-05T02:58:04;6.43;90.89
75865;HTU21D;64510;46.704;38.274;2023-03-05T03:00:30;6.40;90.89
75865;HTU21D;64510;46.704;38.274;2023-03-05T03:02:56;6.34;90.94
75865;HTU21D;64510;46.704;38.274;2023-03-05T03:05:22;6.26;90.98
75865;HTU21D;64510;46.704;38.274;2023-03-05T03:07:48;6.21;91.09
75865;HTU21D;64510;46.704;38.274;2023-03-05T03:10:14;6.16;91.20
75865;HTU21D;64510;46.704;38.274;2023-03-05T03:12:41;6.21;91.17
75865;HTU21D;64510;46.704;38.274;2023-03-05T03:15:10;6.20;91.10
75865;HTU21D;64510;46.704;38.274;2023-03-05T03:17:37;6.22;91.12
75865;HTU21D;64510;46.704;38.274;2023-03-05T03:20:04;6.27;91.04
75865;HTU21D;64510;46.704;38.274;2023-03-05T03:22:30;6.30;90.97
75865;HTU21D;64510;46.704;38.274;2023-03-05T03:24:56;6.36;90.82
75865;HTU21D;64510;46.704;38.274;2023-03-05T03:27:22;6.39;90.82
75865;HTU21D;64510;46.704;38.274;2023-03-05T03:29:48;6.41;90.77
75865;HTU21D;64510;46.704;38.274;2023-03-05T03:32:14;6.44;90.73
75865;HTU21D;64510;46.704;38.274;2023-03-05T03:34:39;6.48;90.69
75865;HTU21D;64510;46.704;38.274;2023-03-05T03:37:06;6.50;90.55
75865;HTU21D;64510;46.704;38.274;2023-03-05T03:39:33;6.51;90.52
75865;HTU21D;64510;46.704;38.274;2023-03-05T03:41:58;6.51;90.46
75865;HTU21D;64510;46.704;38.274;2023-03-05T03:44:24;6.49;90.56
75865;HTU21D;64510;46.704;38.274;2023-03-05T03:46:50;6.46;90.54
75865;HTU21D;64510;46.704;38.274;2023-03-05T03:49:19;6.45;90.60
75865;HTU21D;64510;46.704;38.274;2023-03-05T03:51:46;6.44;90.65
75865;HTU21D;64510;46.704;38.274;2023-03-05T03:54:13;6.45;90.68
75865;HTU21D;64510;46.704;38.274;2023-03-05T03:56:39;6.45;90.69
75865;HTU21D;64510;46.704;38.274;2023-03-05T03:59:04;6.45;90.66
75865;HTU21D;64510;46.704;38.274;2023-03-05T04:01:30;6.43;90.67
75865;HTU21D;64510;46.704;38.274;2023-03-05T04:03:57;6.42;90.72
75865;HTU21D;64510;46.704;38.274;2023-03-05T04:06:23;6.43;90.73
75865;HTU21D;64510;46.704;38.274;2023-03-05T04:08:49;6.45;90.75
75865;HTU21D;64510;46.704;38.274;2023-03-05T04:11:15;6.48;90.66
75865;HTU21D;64510;46.704;38.274;2023-03-05T04:13:44;6.52;90.66
75865;HTU21D;64510;46.704;38.274;2023-03-05T04:16:11;6.59;90.57
75865;HTU21D;64510;46.704;38.274;2023-03-05T04:18:37;6.66;90.59
75865;HTU21D;64510;46.704;38.274;2023-03-05T04:21:03;6.69;90.56
75865;HTU21D;64510;46.704;38.274;2023-03-05T04:23:30;6.74;90.60
75865;HTU21D;64510;46.704;38.274;2023-03-05T04:25:55;6.78;90.57
75865;HTU21D;64510;46.704;38.274;2023-03-05T04:28:21;6.80;90.59
75865;HTU21D;64510;46.704;38.274;2023-03-05T04:30:47;6.83;90.60
75865;HTU21D;64510;46.704;38.274;2023-03-05T04:33:13;6.86;90.63
75865;HTU21D;64510;46.704;38.274;2023-03-05T04:35:39;6.87;90.63
75865;HTU21D;64510;46.704;38.274;2023-03-05T04:38:05;6.89;90.63
75865;HTU21D;64510;46.704;38.274;2023-03-05T04:40:32;6.89;90.68
75865;HTU21D;64510;46.704;38.274;2023-03-05T04:42:58;6.89;90.74
75865;HTU21D;64510;46.704;38.274;2023-03-05T04:45:23;6.90;90.76
75865;HTU21D;64510;46.704;38.274;2023-03-05T04:47:49;6.90;90.84
75865;HTU21D;64510;46.704;38.274;2023-03-05T04:50:15;6.94;90.82
75865;HTU21D;64510;46.704;38.274;2023-03-05T04:52:42;6.98;90.74
75865;HTU21D;64510;46.704;38.274;2023-03-05T04:55:10;6.96;90.77
75865;HTU21D;64510;46.704;38.274;2023-03-05T04:57:36;6.96;90.83
75865;HTU21D;64510;46.704;38.274;2023-03-05T05:00:04;6.96;90.86
75865;HTU21D;64510;46.704;38.274;2023-03-05T05:02:39;6.99;90.86
75865;HTU21D;64510;46.704;38.274;2023-03-05T05:05:07;6.99;90.84
75865;HTU21D;64510;46.704;38.274;2023-03-05T05:07:33;7.01;90.82
75865;HTU21D;64510;46.704;38.274;2023-03-05T05:09:59;7.03;90.82
75865;HTU21D;64510;46.704;38.274;2023-03-05T05:12:32;7.08;90.76
75865;HTU21D;64510;46.704;38.274;2023-03-05T05:14:58;7.11;90.74
75865;HTU21D;64510;46.704;38.274;2023-03-05T05:17:24;7.12;90.69
75865;HTU21D;64510;46.704;38.274;2023-03-05T05:19:50;7.10;90.75
75865;HTU21D;64510;46.704;38.274;2023-03-05T05:22:16;7.09;90.80
75865;HTU21D;64510;46.704;38.274;2023-03-05T05:24:42;7.08;90.82
75865;HTU21D;64510;46.704;38.274;2023-03-05T05:27:08;7.12;90.83
75865;HTU21D;64510;46.704;38.274;2023-03-05T05:29:34;7.12;90.76
75865;HTU21D;64510;46.704;38.274;2023-03-05T05:32:00;7.10;90.81
75865;HTU21D;64510;46.704;38.274;2023-03-05T05:34:26;7.08;90.86
75865;HTU21D;64510;46.704;38.274;2023-03-05T05:36:52;7.08;90.88
75865;HTU21D;64510;46.704;38.274;2023-03-05T05:39:18;7.07;90.92
75865;HTU21D;64510;46.704;38.274;2023-03-05T05:41:44;7.09;90.90
75865;HTU21D;64510;46.704;38.274;2023-03-05T05:44:10;7.10;90.92
75865;HTU21D;64510;46.704;38.274;2023-03-05T05:46:36;7.10;90.86
75865;HTU21D;64510;46.704;38.274;2023-03-05T05:49:02;7.12;90.89
75865;HTU21D;64510;46.704;38.274;2023-03-05T05:51:28;7.17;90.92
75865;HTU21D;64510;46.704;38.274;2023-03-05T05:53:53;7.28;90.89
75865;HTU21D;64510;46.704;38.274;2023-03-05T05:56:19;7.55;91.08
75865;HTU21D;64510;46.704;38.274;2023-03-05T05:58:47;7.75;90.77
75865;HTU21D;64510;46.704;38.274;2023-03-05T06:03:38;7.82;90.24
75865;HTU21D;64510;46.704;38.274;2023-03-05T06:06:10;7.81;90.12
75865;HTU21D;64510;46.704;38.274;2023-03-05T06:08:36;7.81;90.07
75865;HTU21D;64510;46.704;38.274;2023-03-05T06:11:02;7.77;90.05
75865;HTU21D;64510;46.704;38.274;2023-03-05T06:13:28;7.74;90.05
75865;HTU21D;64510;46.704;38.274;2023-03-05T06:16:05;7.72;89.99
75865;HTU21D;64510;46.704;38.274;2023-03-05T06:18:33;7.70;90.02
75865;HTU21D;64510;46.704;38.274;2023-03-05T06:21:02;7.67;90.01
75865;HTU21D;64510;46.704;38.274;2023-03-05T06:23:30;7.64;90.06
75865;HTU21D;64510;46.704;38.274;2023-03-05T06:26:02;7.61;90.12
75865;HTU21D;64510;46.704;38.274;2023-03-05T06:28:28;7.58;90.08
75865;HTU21D;64510;46.704;38.274;2023-03-05T06:31:05;7.62;90.11
75865;HTU21D;64510;46.704;38.274;2023-03-05T06:33:32;7.68;90.15
75865;HTU21D;64510;46.704;38.274;2023-03-05T06:35:58;7.74;90.12
75865;HTU21D;64510;46.704;38.274;2023-03-05T06:38:24;7.86;90.05
75865;HTU21D;64510;46.704;38.274;2023-03-05T06:40:50;7.94;89.99
75865;HTU21D;64510;46.704;38.274;2023-03-05T06:43:17;8.05;89.89
75865;HTU21D;64510;46.704;38.274;2023-03-05T06:45:43;8.12;89.76
75865;HTU21D;64510;46.704;38.274;2023-03-05T06:48:09;8.13;89.63
75865;HTU21D;64510;46.704;38.274;2023-03-05T06:50:36;8.17;89.67
75865;HTU21D;64510;46.704;38.274;2023-03-05T06:53:02;8.23;89.56
75865;HTU21D;64510;46.704;38.274;2023-03-05T06:55:28;8.32;89.47
75865;HTU21D;64510;46.704;38.274;2023-03-05T06:57:54;8.43;89.48
75865;HTU21D;64510;46.704;38.274;2023-03-05T07:00:20;8.53;89.31
75865;HTU21D;64510;46.704;38.274;2023-03-05T07:02:46;8.73;89.35
75865;HTU21D;64510;46.704;38.274;2023-03-05T07:05:12;8.95;88.99
75865;HTU21D;64510;46.704;38.274;2023-03-05T07:07:38;8.97;88.59
75865;HTU21D;64510;46.704;38.274;2023-03-05T07:10:05;8.97;88.53
75865;HTU21D;64510;46.704;38.274;2023-03-05T07:12:36;9.03;88.50
75865;HTU21D;64510;46.704;38.274;2023-03-05T07:15:03;9.08;88.39
75865;HTU21D;64510;46.704;38.274;2023-03-05T07:17:29;9.18;88.26
75865;HTU21D;64510;46.704;38.274;2023-03-05T07:19:55;9.27;88.14
75865;HTU21D;64510;46.704;38.274;2023-03-05T07:22:21;9.38;87.99
75865;HTU21D;64510;46.704;38.274;2023-03-05T07:24:47;9.45;87.77
75865;HTU21D;64510;46.704;38.274;2023-03-05T07:27:12;9.50;87.52
75865;HTU21D;64510;46.704;38.274;2023-03-05T07:29:38;9.46;87.40
75865;HTU21D;64510;46.704;38.274;2023-03-05T07:32:04;9.38;87.38
75865;HTU21D;64510;46.704;38.274;2023-03-05T07:34:30;9.27;87.46
75865;HTU21D;64510;46.704;38.274;2023-03-05T07:36:56;9.22;87.63
75865;HTU21D;64510;46.704;38.274;2023-03-05T07:39:22;9.17;87.57
75865;HTU21D;64510;46.704;38.274;2023-03-05T07:41:48;9.10;87.54
75865;HTU21D;64510;46.704;38.274;2023-03-05T07:44:16;9.00;87.64
75865;HTU21D;64510;46.704;38.274;2023-03-05T07:46:42;8.90;87.80
75865;HTU21D;64510;46.704;38.274;2023-03-05T07:49:08;8.85;87.91
75865;HTU21D;64510;46.704;38.274;2023-03-05T07:51:34;8.87;88.02
75865;HTU21D;64510;46.704;38.274;2023-03-05T07:54:00;8.90;87.89
75865;HTU21D;64510;46.704;38.274;2023-03-05T07:56:34;8.98;87.83
75865;HTU21D;64510;46.704;38.274;2023-03-05T07:59:11;9.14;87.86
75865;HTU21D;64510;46.704;38.274;2023-03-05T08:01:37;9.38;87.60
75865;HTU21D;64510;46.704;38.274;2023-03-05T08:04:05;9.59;87.19
75865;HTU21D;64510;46.704;38.274;2023-03-05T08:06:32;9.68;87.01
75865;HTU21D;64510;46.704;38.274;2023-03-05T08:08:58;9.65;86.74
75865;HTU21D;64510;46.704;38.274;2023-03-05T08:11:24;9.42;86.79
75865;HTU21D;64510;46.704;38.274;2023-03-05T08:13:50;9.22;87.27
75865;HTU21D;64510;46.704;38.274;2023-03-05T08:16:18;9.11;87.37
75865;HTU21D;64510;46.704;38.274;2023-03-05T08:18:45;9.04;87.63
75865;HTU21D;64510;46.704;38.274;2023-03-05T08:21:19;9.06;87.67
75865;HTU21D;64510;46.704;38.274;2023-03-05T08:23:46;9.01;87.53
75865;HTU21D;64510;46.704;38.274;2023-03-05T08:26:17;8.96;87.54
75865;HTU21D;64510;46.704;38.274;2023-03-05T08:28:43;8.94;87.57
75865;HTU21D;64510;46.704;38.274;2023-03-05T08:31:10;8.92;87.52
75865;HTU21D;64510;46.704;38.274;2023-03-05T08:33:36;8.90;87.58
75865;HTU21D;64510;46.704;38.274;2023-03-05T08:36:03;8.90;87.68
75865;HTU21D;64510;46.704;38.274;2023-03-05T08:38:29;8.90;87.55
75865;HTU21D;64510;46.704;38.274;2023-03-05T08:40:55;8.93;87.57
75865;HTU21D;64510;46.704;38.274;2023-03-05T08:43:20;9.01;87.56
75865;HTU21D;64510;46.704;38.274;2023-03-05T08:45:46;9.10;87.47
75865;HTU21D;64510;46.704;38.274;2023-03-05T08:48:14;9.16;87.30
75865;HTU21D;64510;46.704;38.274;2023-03-05T08:50:40;9.16;87.29
75865;HTU21D;64510;46.704;38.274;2023-03-05T08:53:06;9.15;87.34
75865;HTU21D;64510;46.704;38.274;2023-03-05T08:55:32;9.16;87.32
75865;HTU21D;64510;46.704;38.274;2023-03-05T08:57:58;9.16;87.35
75865;HTU21D;64510;46.704;38.274;2023-03-05T09:00:24;9.18;87.30
75865;HTU21D;64510;46.704;38.274;2023-03-05T09:02:50;9.17;87.27
75865;HTU21D;64510;46.704;38.274;2023-03-05T09:05:16;9.20;87.31
75865;HTU21D;64510;46.704;38.274;2023-03-05T09:07:44;9.21;87.32
75865;HTU21D;64510;46.704;38.274;2023-03-05T09:10:11;9.26;87.15
75865;HTU21D;64510;46.704;38.274;2023-03-05T09:12:40;9.34;87.16
75865;HTU21D;64510;46.704;38.274;2023-03-05T09:15:07;9.41;87.06
75865;HTU21D;64510;46.704;38.274;2023-03-05T09:17:35;9.50;86.97
75865;HTU21D;64510;46.704;38.274;2023-03-05T09:20:02;9.60;86.81
75865;HTU21D;64510;46.704;38.274;2023-03-05T09:22:29;9.67;86.65
75865;HTU21D;64510;46.704;38.274;2023-03-05T09:24:55;9.74;86.61
75865;HTU21D;64510;46.704;38.274;2023-03-05T09:27:20;9.79;86.55
75865;HTU21D;64510;46.704;38.274;2023-03-05T09:29:46;9.82;86.43
75865;HTU21D;64510;46.704;38.274;2023-03-05T09:32:12;9.76;86.33
75865;HTU21D;64510;46.704;38.274;2023-03-05T09:34:38;9.70;86.41
75865;HTU21D;64510;46.704;38.274;2023-03-05T09:37:04;9.68;86.46
75865;HTU21D;64510;46.704;38.274;2023-03-05T09:39:30;9.63;86.54
75865;HTU21D;64510;46.704;38.274;2023-03-05T09:45:26;9.65;86.53
75865;HTU21D;64510;46.704;38.274;2023-03-05T09:50:51;9.60;86.51
75865;HTU21D;64510;46.704;38.274;2023-03-05T09:55:58;9.37;86.81
75865;HTU21D;64510;46.704;38.274;2023-03-05T10:00:56;9.35;86.99
75865;HTU21D;64510;46.704;38.274;2023-03-05T10:03:42;9.35;86.92
75865;HTU21D;64510;46.704;38.274;2023-03-05T10:09:39;9.24;86.96
75865;HTU21D;64510;46.704;38.274;2023-03-05T10:14:39;9.07;87.36
75865;HTU21D;64510;46.704;38.274;2023-03-05T10:17:19;9.00;87.45
75865;HTU21D;64510;46.704;38.274;2023-03-05T10:20:22;8.95;87.58
75865;HTU21D;64510;46.704;38.274;2023-03-05T10:28:34;9.04;87.52
75865;HTU21D;64510;46.704;38.274;2023-03-05T10:31:36;9.07;87.46
75865;HTU21D;64510;46.704;38.274;2023-03-05T10:42:05;8.70;88.06
75865;HTU21D;64510;46.704;38.274;2023-03-05T10:44:48;8.64;88.08
75865;HTU21D;64510;46.704;38.274;2023-03-05T10:47:21;8.61;88.21
75865;HTU21D;64510;46.704;38.274;2023-03-05T10:49:54;8.60;88.23
75865;HTU21D;64510;46.704;38.274;2023-03-05T10:52:32;8.58;88.29
75865;HTU21D;64510;46.704;38.274;2023-03-05T10:54:59;8.52;88.37
75865;HTU21D;64510;46.704;38.274;2023-03-05T10:57:28;8.47;88.47
75865;HTU21D;64510;46.704;38.274;2023-03-05T11:02:30;8.50;88.48
75865;HTU21D;64510;46.704;38.274;2023-03-05T11:04:56;8.46;88.51
75865;HTU21D;64510;46.704;38.274;2023-03-05T11:10:06;8.39;88.67
75865;HTU21D;64510;46.704;38.274;2023-03-05T11:12:38;8.38;88.69
75865;HTU21D;64510;46.704;38.274;2023-03-05T11:17:39;8.39;88.68
75865;HTU21D;64510;46.704;38.274;2023-03-05T11:23:11;8.34;88.89
75865;HTU21D;64510;46.704;38.274;2023-03-05T11:26:34;8.31;88.76
75865;HTU21D;64510;46.704;38.274;2023-03-05T11:28:38;8.27;88.93
75865;HTU21D;64510;46.704;38.274;2023-03-05T11:34:06;8.65;88.71
75865;HTU21D;64510;46.704;38.274;2023-03-05T11:36:39;8.87;88.35
75865;HTU21D;64510;46.704;38.274;2023-03-05T11:46:55;9.39;87.28
75865;HTU21D;64510;46.704;38.274;2023-03-05T11:49:26;9.45;87.38
75865;HTU21D;64510;46.704;38.274;2023-03-05T11:52:29;9.51;87.15
75865;HTU21D;64510;46.704;38.274;2023-03-05T11:55:14;9.52;87.22
75865;HTU21D;64510;46.704;38.274;2023-03-05T12:00:35;9.52;87.21
75865;HTU21D;64510;46.704;38.274;2023-03-05T12:03:06;9.52;87.15
75865;HTU21D;64510;46.704;38.274;2023-03-05T12:05:36;9.56;87.12
75865;HTU21D;64510;46.704;38.274;2023-03-05T12:08:05;9.59;86.95
75865;HTU21D;64510;46.704;38.274;2023-03-05T12:10:36;9.48;86.77
75865;HTU21D;64510;46.704;38.274;2023-03-05T12:13:34;9.27;86.82
75865;HTU21D;64510;46.704;38.274;2023-03-05T12:19:01;8.74;87.80
75865;HTU21D;64510;46.704;38.274;2023-03-05T12:21:37;8.66;87.99
75865;HTU21D;64510;46.704;38.274;2023-03-05T12:26:55;8.66;87.67
75865;HTU21D;64510;46.704;38.274;2023-03-05T12:31:53;8.55;87.99
75865;HTU21D;64510;46.704;38.274;2023-03-05T12:37:59;8.70;87.89
75865;HTU21D;64510;46.704;38.274;2023-03-05T12:47:40;8.83;87.26
75865;HTU21D;64510;46.704;38.274;2023-03-05T12:58:18;8.82;87.71
75865;HTU21D;64510;46.704;38.274;2023-03-05T13:03:34;8.97;87.52
75865;HTU21D;64510;46.704;38.274;2023-03-05T13:06:01;9.02;87.43
75865;HTU21D;64510;46.704;38.274;2023-03-05T13:08:36;9.01;87.40
75865;HTU21D;64510;46.704;38.274;2023-03-05T13:11:07;8.98;87.47
75865;HTU21D;64510;46.704;38.274;2023-03-05T13:13:41;8.97;87.51
75865;HTU21D;64510;46.704;38.274;2023-03-05T13:16:26;8.95;87.53
75865;HTU21D;64510;46.704;38.274;2023-03-05T13:18:56;8.91;87.61
75865;HTU21D;64510;46.704;38.274;2023-03-05T13:21:28;8.92;87.69
75865;HTU21D;64510;46.704;38.274;2023-03-05T13:23:57;8.90;87.67
75865;HTU21D;64510;46.704;38.274;2023-03-05T13:26:39;8.85;87.70
75865;HTU21D;64510;46.704;38.274;2023-03-05T13:31:50;8.71;87.99
75865;HTU21D;64510;46.704;38.274;2023-03-05T13:34:22;8.66;88.08
75865;HTU21D;64510;46.704;38.274;2023-03-05T13:39:26;8.66;88.15
75865;HTU21D;64510;46.704;38.274;2023-03-05T13:42:05;8.65;88.09
75865;HTU21D;64510;46.704;38.274;2023-03-05T13:44:32;8.65;88.06
75865;HTU21D;64510;46.704;38.274;2023-03-05T13:47:11;8.67;88.04
75865;HTU21D;64510;46.704;38.274;2023-03-05T13:49:39;8.65;87.93
75865;HTU21D;64510;46.704;38.274;2023-03-05T13:52:05;8.59;87.95
75865;HTU21D;64510;46.704;38.274;2023-03-05T13:54:31;8.56;87.93
75865;HTU21D;64510;46.704;38.274;2023-03-05T13:56:58;8.51;88.04
75865;HTU21D;64510;46.704;38.274;2023-03-05T13:59:29;8.49;88.05
75865;HTU21D;64510;46.704;38.274;2023-03-05T14:02:18;8.44;88.13
75865;HTU21D;64510;46.704;38.274;2023-03-05T14:04:46;8.36;88.09
75865;HTU21D;64510;46.704;38.274;2023-03-05T14:09:50;8.23;88.31
75865;HTU21D;64510;46.704;38.274;2023-03-05T14:12:34;8.15;88.44
75865;HTU21D;64510;46.704;38.274;2023-03-05T14:15:01;8.09;88.52
75865;HTU21D;64510;46.704;38.274;2023-03-05T14:17:40;8.03;88.67
75865;HTU21D;64510;46.704;38.274;2023-03-05T14:22:40;7.87;88.85
75865;HTU21D;64510;46.704;38.274;2023-03-05T14:25:36;7.79;88.99
75865;HTU21D;64510;46.704;38.274;2023-03-05T14:28:27;7.71;89.03
75865;HTU21D;64510;46.704;38.274;2023-03-05T14:30:55;7.62;89.02
75865;HTU21D;64510;46.704;38.274;2023-03-05T14:33:23;7.52;89.16
75865;HTU21D;64510;46.704;38.274;2023-03-05T14:35:51;7.42;89.34
75865;HTU21D;64510;46.704;38.274;2023-03-05T14:38:24;7.33;89.46
75865;HTU21D;64510;46.704;38.274;2023-03-05T14:40:51;7.26;89.60
75865;HTU21D;64510;46.704;38.274;2023-03-05T14:43:16;7.17;89.71
75865;HTU21D;64510;46.704;38.274;2023-03-05T14:45:44;7.10;89.78
75865;HTU21D;64510;46.704;38.274;2023-03-05T14:48:13;7.04;89.91
75865;HTU21D;64510;46.704;38.274;2023-03-05T14:50:45;6.97;90.09
75865;HTU21D;64510;46.704;38.274;2023-03-05T14:53:21;6.88;90.23
75865;HTU21D;64510;46.704;38.274;2023-03-05T14:55:50;6.82;90.31
75865;HTU21D;64510;46.704;38.274;2023-03-05T14:58:21;6.75;90.41
75865;HTU21D;64510;46.704;38.274;2023-03-05T15:00:48;6.73;90.47
75865;HTU21D;64510;46.704;38.274;2023-03-05T15:03:16;6.72;90.49
75865;HTU21D;64510;46.704;38.274;2023-03-05T15:05:43;6.71;90.50
75865;HTU21D;64510;46.704;38.274;2023-03-05T15:08:14;6.68;90.52
75865;HTU21D;64510;46.704;38.274;2023-03-05T15:10:41;6.65;90.54
75865;HTU21D;64510;46.704;38.274;2023-03-05T15:13:07;6.61;90.63
75865;HTU21D;64510;46.704;38.274;2023-03-05T15:15:33;6.58;90.70
75865;HTU21D;64510;46.704;38.274;2023-03-05T15:17:59;6.54;90.76
75865;HTU21D;64510;46.704;38.274;2023-03-05T15:20:28;6.51;90.86
75865;HTU21D;64510;46.704;38.274;2023-03-05T15:22:54;6.46;90.96
75865;HTU21D;64510;46.704;38.274;2023-03-05T15:25:21;6.43;91.02
75865;HTU21D;64510;46.704;38.274;2023-03-05T15:27:48;6.37;91.09
75865;HTU21D;64510;46.704;38.274;2023-03-05T15:30:31;6.33;91.29
75865;HTU21D;64510;46.704;38.274;2023-03-05T15:33:01;6.26;91.30
75865;HTU21D;64510;46.704;38.274;2023-03-05T15:35:28;6.22;91.34
75865;HTU21D;64510;46.704;38.274;2023-03-05T15:37:54;6.16;91.44
75865;HTU21D;64510;46.704;38.274;2023-03-05T15:40:20;6.08;91.56
75865;HTU21D;64510;46.704;38.274;2023-03-05T15:42:47;6.02;91.67
75865;HTU21D;64510;46.704;38.274;2023-03-05T15:45:13;5.95;91.76
75865;HTU21D;64510;46.704;38.274;2023-03-05T15:47:39;5.87;91.90
75865;HTU21D;64510;46.704;38.274;2023-03-05T15:50:06;5.84;92.07
75865;HTU21D;64510;46.704;38.274;2023-03-05T15:52:33;5.82;92.11
75865;HTU21D;64510;46.704;38.274;2023-03-05T15:54:59;5.77;92.17
75865;HTU21D;64510;46.704;38.274;2023-03-05T15:57:25;5.72;92.25
75865;HTU21D;64510;46.704;38.274;2023-03-05T15:59:52;5.70;92.34
75865;HTU21D;64510;46.704;38.274;2023-03-05T16:02:18;5.63;92.37
75865;HTU21D;64510;46.704;38.274;2023-03-05T16:04:44;5.55;92.40
75865;HTU21D;64510;46.704;38.274;2023-03-05T16:07:11;5.49;92.50
75865;HTU21D;64510;46.704;38.274;2023-03-05T16:09:46;5.41;92.61
75865;HTU21D;64510;46.704;38.274;2023-03-05T16:12:15;5.35;92.70
75865;HTU21D;64510;46.704;38.274;2023-03-05T16:14:42;5.30;92.81
75865;HTU21D;64510;46.704;38.274;2023-03-05T16:17:09;5.24;92.85
75865;HTU21D;64510;46.704;38.274;2023-03-05T16:19:39;5.20;92.94
75865;HTU21D;64510;46.704;38.274;2023-03-05T16:22:07;5.19;93.00
75865;HTU21D;64510;46.704;38.274;2023-03-05T16:24:33;5.18;93.05
75865;HTU21D;64510;46.704;38.274;2023-03-05T16:26:59;5.15;93.11
75865;HTU21D;64510;46.704;38.274;2023-03-05T16:29:25;5.19;93.12
75865;HTU21D;64510;46.704;38.274;2023-03-05T16:31:53;5.20;93.11
75865;HTU21D;64510;46.704;38.274;2023-03-05T16:34:19;5.26;93.13
75865;HTU21D;64510;46.704;38.274;2023-03-05T16:36:47;5.31;93.07
75865;HTU21D;64510;46.704;38.274;2023-03-05T16:39:13;5.34;93.01
75865;HTU21D;64510;46.704;38.274;2023-03-05T16:41:39;5.34;92.99
75865;HTU21D;64510;46.704;38.274;2023-03-05T16:44:05;5.34;93.02
75865;HTU21D;64510;46.704;38.274;2023-03-05T16:46:32;5.33;93.08
75865;HTU21D;64510;46.704;38.274;2023-03-05T16:48:57;5.32;93.12
75865;HTU21D;64510;46.704;38.274;2023-03-05T16:51:24;5.27;93.22
75865;HTU21D;64510;46.704;38.274;2023-03-05T16:53:51;5.25;93.29
75865;HTU21D;64510;46.704;38.274;2023-03-05T16:56:17;5.22;93.35
75865;HTU21D;64510;46.704;38.274;2023-03-05T16:58:43;5.17;93.37
75865;HTU21D;64510;46.704;38.274;2023-03-05T17:01:16;5.12;93.41
75865;HTU21D;64510;46.704;38.274;2023-03-05T17:03:43;5.06;93.48
75865;HTU21D;64510;46.704;38.274;2023-03-05T17:06:12;5.00;93.57